sensor_id;sensor_type;location;lat;lon;timestamp;temperature;humidity
47252;DHT22;32991;51.374;11.586;2023-01-01T00:01:21;14.30;99.90
47252;DHT22;32991;51.374;11.586;2023-01-01T00:03:48;14.30;99.90
47252;DHT22;32991;51.374;11.586;2023-01-01T00:06:16;14.30;99.90
47252;DHT22;32991;51.374;11.586;2023-01-01T00:08:43;14.30;99.90
47252;DHT22;32991;51.374;11.586;2023-01-01T00:11:10;14.30;99.90
47252;DHT22;32991;51.374;11.586;2023-01-01T00:13:38;14.30;99.90
47252;DHT22;32991;51.374;11.586;2023-01-01T00:16:12;14.20;99.90
47252;DHT22;32991;51.374;11.586;2023-01-01T00:18:39;14.20;99.90
47252;DHT22;32991;51.374;11.586;2023-01-01T00:21:08;14.10;99.90
47252;DHT22;32991;51.374;11.586;2023-01-01T00:23:35;14.10;99.90
47252;DHT22;32991;51.374;11.586;2023-01-01T00:26:10;14.00;99.90
47252;DHT22;32991;51.374;11.586;2023-01-01T00:28:37;14.00;99.90
47252;DHT22;32991;51.374;11.586;2023-01-01T00:31:11;14.00;99.90
47252;DHT22;32991;51.374;11.586;2023-01-01T00:33:39;14.00;99.90
47252;DHT22;32991;51.374;11.586;2023-01-01T00:36:07;14.00;99.90
47252;DHT22;32991;51.374;11.586;2023-01-01T00:38:34;14.00;99.90
47252;DHT22;32991;51.374;11.586;2023-01-01T00:41:02;14.00;99.90
47252;DHT22;32991;51.374;11.586;2023-01-01T00:43:29;13.90;99.90
47252;DHT22;32991;51.374;11.586;2023-01-01T00:45:56;13.90;99.90
47252;DHT22;32991;51.374;11.586;2023-01-01T00:48:23;13.90;99.90
47252;DHT22;32991;51.374;11.586;2023-01-01T00:50:50;13.90;99.90
47252;DHT22;32991;51.374;11.586;2023-01-01T00:53:18;13.80;99.90
47252;DHT22;32991;51.374;11.586;2023-01-01T00:55:46;13.80;99.90
47252;DHT22;32991;51.374;11.586;2023-01-01T00:58:13;13.80;99.90
47252;DHT22;32991;51.374;11.586;2023-01-01T01:00:41;13.80;99.90
47252;DHT22;32991;51.374;11.586;2023-01-01T01:03:09;13.80;99.90
47252;DHT22;32991;51.374;11.586;2023-01-01T01:05:37;13.80;99.90
47252;DHT22;32991;51.374;11.586;2023-01-01T01:08:03;13.70;99.90
47252;DHT22;32991;51.374;11.586;2023-01-01T01:10:30;13.80;99.90
47252;DHT22;32991;51.374;11.586;2023-01-01T01:12:57;13.80;99.90
47252;DHT22;32991;51.374;11.586;2023-01-01T01:15:24;13.80;99.90
47252;DHT22;32991;51.374;11.586;2023-01-01T01:17:51;13.80;99.90
47252;DHT22;32991;51.374;11.586;2023-01-01T01:20:19;13.90;99.90
47252;DHT22;32991;51.374;11.586;2023-01-01T01:22:46;13.90;99.90
47252;DHT22;32991;51.374;11.586;2023-01-01T01:25:12;13.90;99.90
47252;DHT22;32991;51.374;11.586;2023-01-01T01:27:39;13.90;99.90
47252;DHT22;32991;51.374;11.586;2023-01-01T01:30:06;13.90;99.90
47252;DHT22;32991;51.374;11.586;2023-01-01T01:32:33;13.90;99.90
47252;DHT22;32991;51.374;11.586;2023-01-01T01:35:00;13.90;99.90
47252;DHT22;32991;51.374;11.586;2023-01-01T01:37:27;13.90;99.90
47252;DHT22;32991;51.374;11.586;2023-01-01T01:39:54;13.90;99.90
47252;DHT22;32991;51.374;11.586;2023-01-01T01:42:21;13.90;99.90
47252;DHT22;32991;51.374;11.586;2023-01-01T01:47:31;13.90;99.90
47252;DHT22;32991;51.374;11.586;2023-01-01T01:55:20;13.80;99.90
47252;DHT22;32991;51.374;11.586;2023-01-01T01:57:47;13.80;99.90
47252;DHT22;32991;51.374;11.586;2023-01-01T02:00:14;13.80;99.90
47252;DHT22;32991;51.374;11.586;2023-01-01T02:02:50;13.80;99.90
47252;DHT22;32991;51.374;11.586;2023-01-01T02:05:18;13.80;99.90
47252;DHT22;32991;51.374;11.586;2023-01-01T02:07:45;13.90;99.90
47252;DHT22;32991;51.374;11.586;2023-01-01T02:10:12;13.90;99.90
47252;DHT22;32991;51.374;11.586;2023-01-01T02:12:39;13.90;99.90
47252;DHT22;32991;51.374;11.586;2023-01-01T02:15:06;13.90;99.90
47252;DHT22;32991;51.374;11.586;2023-01-01T02:17:34;13.90;99.90
47252;DHT22;32991;51.374;11.586;2023-01-01T02:25:09;13.80;99.90
47252;DHT22;32991;51.374;11.586;2023-01-01T02:30:23;13.70;99.90
47252;DHT22;32991;51.374;11.586;2023-01-01T02:32:53;13.70;99.90
47252;DHT22;32991;51.374;11.586;2023-01-01T02:35:23;13.70;99.90
47252;DHT22;32991;51.374;11.586;2023-01-01T02:38:04;13.60;99.90
47252;DHT22;32991;51.374;11.586;2023-01-01T02:40:33;13.60;99.90
47252;DHT22;32991;51.374;11.586;2023-01-01T02:43:01;13.60;99.90
47252;DHT22;32991;51.374;11.586;2023-01-01T02:45:29;13.60;99.90
47252;DHT22;32991;51.374;11.586;2023-01-01T02:47:55;13.50;99.90
47252;DHT22;32991;51.374;11.586;2023-01-01T02:50:23;13.50;99.90
47252;DHT22;32991;51.374;11.586;2023-01-01T02:55:26;13.70;99.90
47252;DHT22;32991;51.374;11.586;2023-01-01T02:57:58;13.70;99.90
47252;DHT22;32991;51.374;11.586;2023-01-01T03:00:47;13.70;99.90
47252;DHT22;32991;51.374;11.586;2023-01-01T03:03:18;13.60;99.90
47252;DHT22;32991;51.374;11.586;2023-01-01T03:05:47;13.60;99.90
47252;DHT22;32991;51.374;11.586;2023-01-01T03:11:43;13.70;99.90
47252;DHT22;32991;51.374;11.586;2023-01-01T03:19:17;13.60;99.90
47252;DHT22;32991;51.374;11.586;2023-01-01T03:21:55;13.60;99.90
47252;DHT22;32991;51.374;11.586;2023-01-01T03:24:31;13.50;99.90
47252;DHT22;32991;51.374;11.586;2023-01-01T03:27:01;13.50;99.90
47252;DHT22;32991;51.374;11.586;2023-01-01T03:29:30;13.50;99.90
47252;DHT22;32991;51.374;11.586;2023-01-01T03:31:58;13.40;99.90
47252;DHT22;32991;51.374;11.586;2023-01-01T03:34:28;13.30;99.90
47252;DHT22;32991;51.374;11.586;2023-01-01T03:36:56;13.40;99.90
47252;DHT22;32991;51.374;11.586;2023-01-01T03:39:32;13.30;99.90
47252;DHT22;32991;51.374;11.586;2023-01-01T03:42:03;13.30;99.90
47252;DHT22;32991;51.374;11.586;2023-01-01T03:44:35;13.30;99.90
47252;DHT22;32991;51.374;11.586;2023-01-01T03:47:03;13.30;99.90
47252;DHT22;32991;51.374;11.586;2023-01-01T03:49:31;13.40;99.90
47252;DHT22;32991;51.374;11.586;2023-01-01T03:52:17;13.30;99.90
47252;DHT22;32991;51.374;11.586;2023-01-01T03:54:59;13.30;99.90
47252;DHT22;32991;51.374;11.586;2023-01-01T03:57:32;13.30;99.90
47252;DHT22;32991;51.374;11.586;2023-01-01T04:02:45;13.20;99.90
47252;DHT22;32991;51.374;11.586;2023-01-01T04:05:14;13.10;99.90
47252;DHT22;32991;51.374;11.586;2023-01-01T04:07:41;13.10;99.90
47252;DHT22;32991;51.374;11.586;2023-01-01T04:10:07;13.10;99.90
47252;DHT22;32991;51.374;11.586;2023-01-01T04:12:44;13.00;99.90
47252;DHT22;32991;51.374;11.586;2023-01-01T04:15:11;13.00;99.90
47252;DHT22;32991;51.374;11.586;2023-01-01T04:17:38;13.00;99.90
47252;DHT22;32991;51.374;11.586;2023-01-01T04:20:04;13.00;99.90
47252;DHT22;32991;51.374;11.586;2023-01-01T04:22:33;13.00;99.90
47252;DHT22;32991;51.374;11.586;2023-01-01T04:24:59;13.00;99.90
47252;DHT22;32991;51.374;11.586;2023-01-01T04:27:26;13.00;99.90
47252;DHT22;32991;51.374;11.586;2023-01-01T04:29:53;12.90;99.90
47252;DHT22;32991;51.374;11.586;2023-01-01T04:32:20;13.00;99.90
47252;DHT22;32991;51.374;11.586;2023-01-01T04:34:47;13.00;99.90
47252;DHT22;32991;51.374;11.586;2023-01-01T04:37:14;13.00;99.90
47252;DHT22;32991;51.374;11.586;2023-01-01T04:39:40;13.00;99.90
47252;DHT22;32991;51.374;11.586;2023-01-01T04:42:08;13.00;99.90
47252;DHT22;32991;51.374;11.586;2023-01-01T04:44:34;13.00;99.90
47252;DHT22;32991;51.374;11.586;2023-01-01T04:47:01;13.00;99.90
47252;DHT22;32991;51.374;11.586;2023-01-01T04:49:28;13.00;99.90
47252;DHT22;32991;51.374;11.586;2023-01-01T04:51:55;13.10;99.90
47252;DHT22;32991;51.374;11.586;2023-01-01T04:54:22;13.10;99.90
47252;DHT22;32991;51.374;11.586;2023-01-01T04:56:48;13.10;99.90
47252;DHT22;32991;51.374;11.586;2023-01-01T04:59:15;13.10;99.90
47252;DHT22;32991;51.374;11.586;2023-01-01T05:01:41;13.20;99.90
47252;DHT22;32991;51.374;11.586;2023-01-01T05:04:11;13.20;99.90
47252;DHT22;32991;51.374;11.586;2023-01-01T05:06:38;13.20;99.90
47252;DHT22;32991;51.374;11.586;2023-01-01T05:09:05;13.20;99.90
47252;DHT22;32991;51.374;11.586;2023-01-01T05:11:31;13.20;99.90
47252;DHT22;32991;51.374;11.586;2023-01-01T05:13:58;13.20;99.90
47252;DHT22;32991;51.374;11.586;2023-01-01T05:16:27;13.30;99.90
47252;DHT22;32991;51.374;11.586;2023-01-01T05:18:54;13.30;99.90
47252;DHT22;32991;51.374;11.586;2023-01-01T05:21:22;13.30;99.90
47252;DHT22;32991;51.374;11.586;2023-01-01T05:23:52;13.30;99.90
47252;DHT22;32991;51.374;11.586;2023-01-01T05:26:20;13.20;99.90
47252;DHT22;32991;51.374;11.586;2023-01-01T05:28:48;13.30;99.90
47252;DHT22;32991;51.374;11.586;2023-01-01T05:31:17;13.30;99.90
47252;DHT22;32991;51.374;11.586;2023-01-01T05:33:44;13.30;99.90
47252;DHT22;32991;51.374;11.586;2023-01-01T05:36:19;13.30;99.90
47252;DHT22;32991;51.374;11.586;2023-01-01T05:38:45;13.30;99.90
47252;DHT22;32991;51.374;11.586;2023-01-01T05:41:13;13.20;99.90
47252;DHT22;32991;51.374;11.586;2023-01-01T05:43:40;13.20;99.90
47252;DHT22;32991;51.374;11.586;2023-01-01T05:46:08;13.20;99.90
47252;DHT22;32991;51.374;11.586;2023-01-01T05:48:35;13.20;99.90
47252;DHT22;32991;51.374;11.586;2023-01-01T05:51:06;13.20;99.90
47252;DHT22;32991;51.374;11.586;2023-01-01T05:53:33;13.10;99.90
47252;DHT22;32991;51.374;11.586;2023-01-01T05:56:00;13.20;99.90
47252;DHT22;32991;51.374;11.586;2023-01-01T05:58:28;13.20;99.90
47252;DHT22;32991;51.374;11.586;2023-01-01T06:00:55;13.20;99.90
47252;DHT22;32991;51.374;11.586;2023-01-01T06:03:21;13.20;99.90
47252;DHT22;32991;51.374;11.586;2023-01-01T06:05:48;13.20;99.90
47252;DHT22;32991;51.374;11.586;2023-01-01T06:08:15;13.20;99.90
47252;DHT22;32991;51.374;11.586;2023-01-01T06:10:42;13.20;99.90
47252;DHT22;32991;51.374;11.586;2023-01-01T06:13:08;13.20;99.90
47252;DHT22;32991;51.374;11.586;2023-01-01T06:15:39;13.20;99.90
47252;DHT22;32991;51.374;11.586;2023-01-01T06:18:06;13.20;99.90
47252;DHT22;32991;51.374;11.586;2023-01-01T06:20:32;13.20;99.90
47252;DHT22;32991;51.374;11.586;2023-01-01T06:22:59;13.20;99.90
47252;DHT22;32991;51.374;11.586;2023-01-01T06:25:26;13.20;99.90
47252;DHT22;32991;51.374;11.586;2023-01-01T06:27:52;13.20;99.90
47252;DHT22;32991;51.374;11.586;2023-01-01T06:30:19;13.20;99.90
47252;DHT22;32991;51.374;11.586;2023-01-01T06:32:46;13.20;99.90
47252;DHT22;32991;51.374;11.586;2023-01-01T06:35:13;13.20;99.90
47252;DHT22;32991;51.374;11.586;2023-01-01T06:37:39;13.10;99.90
47252;DHT22;32991;51.374;11.586;2023-01-01T06:40:06;13.10;99.90
47252;DHT22;32991;51.374;11.586;2023-01-01T06:42:33;13.10;99.90
47252;DHT22;32991;51.374;11.586;2023-01-01T06:45:00;13.10;99.90
47252;DHT22;32991;51.374;11.586;2023-01-01T06:47:26;13.10;99.90
47252;DHT22;32991;51.374;11.586;2023-01-01T06:49:53;13.10;99.90
47252;DHT22;32991;51.374;11.586;2023-01-01T06:52:20;13.10;99.90
47252;DHT22;32991;51.374;11.586;2023-01-01T06:54:47;13.00;99.90
47252;DHT22;32991;51.374;11.586;2023-01-01T06:57:14;13.00;99.90
47252;DHT22;32991;51.374;11.586;2023-01-01T06:59:41;13.00;99.90
47252;DHT22;32991;51.374;11.586;2023-01-01T07:02:09;13.00;99.90
47252;DHT22;32991;51.374;11.586;2023-01-01T07:04:36;13.00;99.90
47252;DHT22;32991;51.374;11.586;2023-01-01T07:07:03;13.00;99.90
47252;DHT22;32991;51.374;11.586;2023-01-01T07:09:30;13.00;99.90
47252;DHT22;32991;51.374;11.586;2023-01-01T07:11:57;12.90;99.90
47252;DHT22;32991;51.374;11.586;2023-01-01T07:14:23;12.90;99.90
47252;DHT22;32991;51.374;11.586;2023-01-01T07:16:50;12.80;99.90
47252;DHT22;32991;51.374;11.586;2023-01-01T07:19:17;12.80;99.90
47252;DHT22;32991;51.374;11.586;2023-01-01T07:21:44;12.80;99.90
47252;DHT22;32991;51.374;11.586;2023-01-01T07:24:13;12.80;99.90
47252;DHT22;32991;51.374;11.586;2023-01-01T07:26:40;12.80;99.90
47252;DHT22;32991;51.374;11.586;2023-01-01T07:29:07;12.80;99.90
47252;DHT22;32991;51.374;11.586;2023-01-01T07:31:35;12.70;99.90
47252;DHT22;32991;51.374;11.586;2023-01-01T07:34:02;12.70;99.90
47252;DHT22;32991;51.374;11.586;2023-01-01T07:36:29;12.70;99.90
47252;DHT22;32991;51.374;11.586;2023-01-01T07:38:56;12.70;99.90
47252;DHT22;32991;51.374;11.586;2023-01-01T07:41:23;12.70;99.90
47252;DHT22;32991;51.374;11.586;2023-01-01T07:43:50;12.70;99.90
47252;DHT22;32991;51.374;11.586;2023-01-01T07:46:17;12.70;99.90
47252;DHT22;32991;51.374;11.586;2023-01-01T07:48:45;12.70;99.90
47252;DHT22;32991;51.374;11.586;2023-01-01T07:51:12;12.80;99.90
47252;DHT22;32991;51.374;11.586;2023-01-01T07:53:38;12.80;99.90
47252;DHT22;32991;51.374;11.586;2023-01-01T07:56:05;12.90;99.90
47252;DHT22;32991;51.374;11.586;2023-01-01T07:58:32;12.90;99.90
47252;DHT22;32991;51.374;11.586;2023-01-01T08:00:59;12.90;99.90
47252;DHT22;32991;51.374;11.586;2023-01-01T08:03:26;13.00;99.90
47252;DHT22;32991;51.374;11.586;2023-01-01T08:05:52;13.00;99.90
47252;DHT22;32991;51.374;11.586;2023-01-01T08:08:19;13.10;99.90
47252;DHT22;32991;51.374;11.586;2023-01-01T08:10:46;13.10;99.90
47252;DHT22;32991;51.374;11.586;2023-01-01T08:13:13;13.20;99.90
47252;DHT22;32991;51.374;11.586;2023-01-01T08:15:39;13.30;99.90
47252;DHT22;32991;51.374;11.586;2023-01-01T08:18:06;13.30;99.90
47252;DHT22;32991;51.374;11.586;2023-01-01T08:20:33;13.30;99.90
47252;DHT22;32991;51.374;11.586;2023-01-01T08:23:01;13.30;99.90
47252;DHT22;32991;51.374;11.586;2023-01-01T08:25:33;13.40;99.90
47252;DHT22;32991;51.374;11.586;2023-01-01T08:27:59;13.50;99.90
47252;DHT22;32991;51.374;11.586;2023-01-01T08:30:26;13.60;99.90
47252;DHT22;32991;51.374;11.586;2023-01-01T08:32:53;13.70;99.90
47252;DHT22;32991;51.374;11.586;2023-01-01T08:35:20;13.70;99.90
47252;DHT22;32991;51.374;11.586;2023-01-01T08:37:46;14.00;99.90
47252;DHT22;32991;51.374;11.586;2023-01-01T08:40:13;14.50;99.90
47252;DHT22;32991;51.374;11.586;2023-01-01T08:42:40;15.20;99.90
47252;DHT22;32991;51.374;11.586;2023-01-01T08:45:07;15.90;99.90
47252;DHT22;32991;51.374;11.586;2023-01-01T08:47:34;16.40;99.90
47252;DHT22;32991;51.374;11.586;2023-01-01T08:50:00;16.60;99.90
47252;DHT22;32991;51.374;11.586;2023-01-01T08:52:27;16.30;99.90
47252;DHT22;32991;51.374;11.586;2023-01-01T08:54:54;16.10;99.90
47252;DHT22;32991;51.374;11.586;2023-01-01T08:57:21;15.80;99.90
47252;DHT22;32991;51.374;11.586;2023-01-01T08:59:47;15.80;99.90
47252;DHT22;32991;51.374;11.586;2023-01-01T09:02:14;15.80;99.90
47252;DHT22;32991;51.374;11.586;2023-01-01T09:04:41;16.00;99.90
47252;DHT22;32991;51.374;11.586;2023-01-01T09:07:08;16.20;99.90
47252;DHT22;32991;51.374;11.586;2023-01-01T09:09:35;16.20;99.90
47252;DHT22;32991;51.374;11.586;2023-01-01T09:12:01;16.00;99.90
47252;DHT22;32991;51.374;11.586;2023-01-01T09:14:32;15.80;99.90
47252;DHT22;32991;51.374;11.586;2023-01-01T09:16:59;15.60;99.90
47252;DHT22;32991;51.374;11.586;2023-01-01T09:19:26;15.40;99.90
47252;DHT22;32991;51.374;11.586;2023-01-01T09:21:53;15.30;99.90
47252;DHT22;32991;51.374;11.586;2023-01-01T09:24:19;15.10;99.90
47252;DHT22;32991;51.374;11.586;2023-01-01T09:26:46;15.00;99.90
47252;DHT22;32991;51.374;11.586;2023-01-01T09:29:13;15.10;99.90
47252;DHT22;32991;51.374;11.586;2023-01-01T09:31:43;15.30;99.90
47252;DHT22;32991;51.374;11.586;2023-01-01T09:34:10;15.40;99.90
47252;DHT22;32991;51.374;11.586;2023-01-01T09:36:37;15.50;99.90
47252;DHT22;32991;51.374;11.586;2023-01-01T09:39:04;15.50;99.90
47252;DHT22;32991;51.374;11.586;2023-01-01T09:47:02;16.00;99.90
47252;DHT22;32991;51.374;11.586;2023-01-01T09:49:33;16.30;99.90
47252;DHT22;32991;51.374;11.586;2023-01-01T09:52:00;16.70;99.90
47252;DHT22;32991;51.374;11.586;2023-01-01T09:54:38;17.00;99.90
47252;DHT22;32991;51.374;11.586;2023-01-01T09:57:06;17.10;99.90
47252;DHT22;32991;51.374;11.586;2023-01-01T09:59:43;17.20;99.90
47252;DHT22;32991;51.374;11.586;2023-01-01T10:02:29;17.20;99.90
47252;DHT22;32991;51.374;11.586;2023-01-01T10:04:59;17.10;99.90
47252;DHT22;32991;51.374;11.586;2023-01-01T10:07:42;17.00;99.90
47252;DHT22;32991;51.374;11.586;2023-01-01T10:12:59;17.20;99.90
47252;DHT22;32991;51.374;11.586;2023-01-01T10:15:34;17.60;99.90
47252;DHT22;32991;51.374;11.586;2023-01-01T10:18:03;18.10;99.90
47252;DHT22;32991;51.374;11.586;2023-01-01T10:20:39;18.40;99.60
47252;DHT22;32991;51.374;11.586;2023-01-01T10:23:12;18.20;99.40
47252;DHT22;32991;51.374;11.586;2023-01-01T10:25:40;17.80;99.80
47252;DHT22;32991;51.374;11.586;2023-01-01T10:28:32;17.40;99.90
47252;DHT22;32991;51.374;11.586;2023-01-01T10:31:10;16.90;99.90
47252;DHT22;32991;51.374;11.586;2023-01-01T10:33:39;16.50;99.90
47252;DHT22;32991;51.374;11.586;2023-01-01T10:36:06;16.20;99.90
47252;DHT22;32991;51.374;11.586;2023-01-01T10:38:34;16.00;99.90
47252;DHT22;32991;51.374;11.586;2023-01-01T10:41:02;15.80;99.90
47252;DHT22;32991;51.374;11.586;2023-01-01T10:43:32;15.60;99.90
47252;DHT22;32991;51.374;11.586;2023-01-01T10:45:59;15.50;99.90
47252;DHT22;32991;51.374;11.586;2023-01-01T10:48:27;15.40;99.90
47252;DHT22;32991;51.374;11.586;2023-01-01T10:51:00;15.40;99.90
47252;DHT22;32991;51.374;11.586;2023-01-01T10:53:30;15.40;99.90
47252;DHT22;32991;51.374;11.586;2023-01-01T10:56:07;15.30;99.90
47252;DHT22;32991;51.374;11.586;2023-01-01T10:58:42;15.30;99.90
47252;DHT22;32991;51.374;11.586;2023-01-01T11:01:10;15.30;99.90
47252;DHT22;32991;51.374;11.586;2023-01-01T11:03:50;15.30;99.90
47252;DHT22;32991;51.374;11.586;2023-01-01T11:06:19;15.40;99.90
47252;DHT22;32991;51.374;11.586;2023-01-01T11:08:48;15.50;99.90
47252;DHT22;32991;51.374;11.586;2023-01-01T11:13:48;15.60;99.90
47252;DHT22;32991;51.374;11.586;2023-01-01T11:16:16;15.70;99.90
47252;DHT22;32991;51.374;11.586;2023-01-01T11:18:43;15.90;99.90
47252;DHT22;32991;51.374;11.586;2023-01-01T11:21:10;16.00;99.90
47252;DHT22;32991;51.374;11.586;2023-01-01T11:23:44;16.10;99.90
47252;DHT22;32991;51.374;11.586;2023-01-01T11:28:38;16.20;99.90
47252;DHT22;32991;51.374;11.586;2023-01-01T11:33:33;16.10;99.90
47252;DHT22;32991;51.374;11.586;2023-01-01T11:36:01;16.00;99.90
47252;DHT22;32991;51.374;11.586;2023-01-01T11:38:28;16.00;99.90
47252;DHT22;32991;51.374;11.586;2023-01-01T11:41:00;15.90;99.90
47252;DHT22;32991;51.374;11.586;2023-01-01T11:43:28;15.90;99.90
47252;DHT22;32991;51.374;11.586;2023-01-01T11:45:58;15.80;99.90
47252;DHT22;32991;51.374;11.586;2023-01-01T11:48:26;15.70;99.90
47252;DHT22;32991;51.374;11.586;2023-01-01T11:50:56;15.70;99.90
47252;DHT22;32991;51.374;11.586;2023-01-01T11:53:26;15.70;99.90
47252;DHT22;32991;51.374;11.586;2023-01-01T12:01:23;15.90;99.90
47252;DHT22;32991;51.374;11.586;2023-01-01T12:06:29;15.90;99.90
47252;DHT22;32991;51.374;11.586;2023-01-01T12:09:06;15.80;99.90
47252;DHT22;32991;51.374;11.586;2023-01-01T12:11:44;15.80;99.90
47252;DHT22;32991;51.374;11.586;2023-01-01T12:16:47;15.70;99.90
47252;DHT22;32991;51.374;11.586;2023-01-01T12:19:18;15.70;99.90
47252;DHT22;32991;51.374;11.586;2023-01-01T12:21:48;15.60;99.90
47252;DHT22;32991;51.374;11.586;2023-01-01T12:24:18;15.50;99.90
47252;DHT22;32991;51.374;11.586;2023-01-01T12:26:56;15.50;99.90
47252;DHT22;32991;51.374;11.586;2023-01-01T12:29:45;15.40;99.90
47252;DHT22;32991;51.374;11.586;2023-01-01T12:32:20;15.40;99.90
47252;DHT22;32991;51.374;11.586;2023-01-01T12:34:57;15.30;99.90
47252;DHT22;32991;51.374;11.586;2023-01-01T12:37:35;15.20;99.90
47252;DHT22;32991;51.374;11.586;2023-01-01T12:42:55;15.20;99.90
47252;DHT22;32991;51.374;11.586;2023-01-01T12:50:40;15.10;99.90
47252;DHT22;32991;51.374;11.586;2023-01-01T12:58:33;15.00;99.90
47252;DHT22;32991;51.374;11.586;2023-01-01T13:01:12;15.00;99.90
47252;DHT22;32991;51.374;11.586;2023-01-01T13:03:47;14.90;99.90
47252;DHT22;32991;51.374;11.586;2023-01-01T13:06:16;14.90;99.90
47252;DHT22;32991;51.374;11.586;2023-01-01T13:08:54;14.80;99.90
47252;DHT22;32991;51.374;11.586;2023-01-01T13:11:22;14.80;99.90
47252;DHT22;32991;51.374;11.586;2023-01-01T13:13:50;14.80;99.90
47252;DHT22;32991;51.374;11.586;2023-01-01T13:19:03;14.70;99.90
47252;DHT22;32991;51.374;11.586;2023-01-01T13:21:30;14.60;99.90
47252;DHT22;32991;51.374;11.586;2023-01-01T13:23:59;14.60;99.90
47252;DHT22;32991;51.374;11.586;2023-01-01T13:36:49;14.60;99.90
47252;DHT22;32991;51.374;11.586;2023-01-01T13:42:01;14.60;99.90
47252;DHT22;32991;51.374;11.586;2023-01-01T13:44:28;14.60;99.90
47252;DHT22;32991;51.374;11.586;2023-01-01T13:47:12;14.60;99.90
47252;DHT22;32991;51.374;11.586;2023-01-01T13:49:55;14.60;99.90
47252;DHT22;32991;51.374;11.586;2023-01-01T13:52:52;14.60;99.90
47252;DHT22;32991;51.374;11.586;2023-01-01T13:58:15;14.60;99.90
47252;DHT22;32991;51.374;11.586;2023-01-01T14:01:06;14.50;99.90
47252;DHT22;32991;51.374;11.586;2023-01-01T14:03:43;14.50;99.90
47252;DHT22;32991;51.374;11.586;2023-01-01T14:06:15;14.50;99.90
47252;DHT22;32991;51.374;11.586;2023-01-01T14:08:45;14.50;99.90
47252;DHT22;32991;51.374;11.586;2023-01-01T14:11:25;14.50;99.90
47252;DHT22;32991;51.374;11.586;2023-01-01T14:13:52;14.50;99.90
47252;DHT22;32991;51.374;11.586;2023-01-01T14:16:20;14.50;99.90
47252;DHT22;32991;51.374;11.586;2023-01-01T14:18:47;14.50;99.90
47252;DHT22;32991;51.374;11.586;2023-01-01T14:21:15;14.40;99.90
47252;DHT22;32991;51.374;11.586;2023-01-01T14:23:49;14.40;99.90
47252;DHT22;32991;51.374;11.586;2023-01-01T14:26:17;14.40;99.90
47252;DHT22;32991;51.374;11.586;2023-01-01T14:28:45;14.40;99.90
47252;DHT22;32991;51.374;11.586;2023-01-01T14:31:21;14.40;99.90
47252;DHT22;32991;51.374;11.586;2023-01-01T14:33:49;14.40;99.90
47252;DHT22;32991;51.374;11.586;2023-01-01T14:36:23;14.30;99.90
47252;DHT22;32991;51.374;11.586;2023-01-01T14:38:52;14.30;99.90
47252;DHT22;32991;51.374;11.586;2023-01-01T14:41:31;14.30;99.90
47252;DHT22;32991;51.374;11.586;2023-01-01T14:44:03;14.30;99.90
47252;DHT22;32991;51.374;11.586;2023-01-01T14:46:31;14.20;99.90
47252;DHT22;32991;51.374;11.586;2023-01-01T14:49:00;14.20;99.90
47252;DHT22;32991;51.374;11.586;2023-01-01T14:51:28;14.20;99.90
47252;DHT22;32991;51.374;11.586;2023-01-01T14:53:56;14.10;99.90
47252;DHT22;32991;51.374;11.586;2023-01-01T14:56:26;14.00;99.90
47252;DHT22;32991;51.374;11.586;2023-01-01T14:59:01;14.00;99.90
47252;DHT22;32991;51.374;11.586;2023-01-01T15:01:29;13.90;99.90
47252;DHT22;32991;51.374;11.586;2023-01-01T15:04:04;13.90;99.90
47252;DHT22;32991;51.374;11.586;2023-01-01T15:06:30;13.90;99.90
47252;DHT22;32991;51.374;11.586;2023-01-01T15:08:58;13.90;99.90
47252;DHT22;32991;51.374;11.586;2023-01-01T15:11:25;13.90;99.90
47252;DHT22;32991;51.374;11.586;2023-01-01T15:13:58;13.90;99.90
47252;DHT22;32991;51.374;11.586;2023-01-01T15:16:25;13.80;99.90
47252;DHT22;32991;51.374;11.586;2023-01-01T15:18:53;13.80;99.90
47252;DHT22;32991;51.374;11.586;2023-01-01T15:21:38;13.80;99.90
47252;DHT22;32991;51.374;11.586;2023-01-01T15:24:16;13.80;99.90
47252;DHT22;32991;51.374;11.586;2023-01-01T15:26:56;13.80;99.90
47252;DHT22;32991;51.374;11.586;2023-01-01T15:29:27;13.80;99.90
47252;DHT22;32991;51.374;11.586;2023-01-01T15:31:55;13.80;99.90
47252;DHT22;32991;51.374;11.586;2023-01-01T15:34:24;13.90;99.90
47252;DHT22;32991;51.374;11.586;2023-01-01T15:36:53;13.90;99.90
47252;DHT22;32991;51.374;11.586;2023-01-01T15:39:20;13.90;99.90
47252;DHT22;32991;51.374;11.586;2023-01-01T15:41:48;13.90;99.90
47252;DHT22;32991;51.374;11.586;2023-01-01T15:46:44;13.90;99.90
47252;DHT22;32991;51.374;11.586;2023-01-01T15:49:21;13.90;99.90
47252;DHT22;32991;51.374;11.586;2023-01-01T15:51:48;13.80;99.90
47252;DHT22;32991;51.374;11.586;2023-01-01T15:54:15;13.80;99.90
47252;DHT22;32991;51.374;11.586;2023-01-01T15:56:43;13.80;99.90
47252;DHT22;32991;51.374;11.586;2023-01-01T15:59:17;13.80;99.90
47252;DHT22;32991;51.374;11.586;2023-01-01T16:01:46;13.70;99.90
47252;DHT22;32991;51.374;11.586;2023-01-01T16:04:16;13.70;99.90
47252;DHT22;32991;51.374;11.586;2023-01-01T16:06:53;13.70;99.90
47252;DHT22;32991;51.374;11.586;2023-01-01T16:09:20;13.70;99.90
47252;DHT22;32991;51.374;11.586;2023-01-01T16:11:51;13.60;99.90
47252;DHT22;32991;51.374;11.586;2023-01-01T16:14:18;13.60;99.90
47252;DHT22;32991;51.374;11.586;2023-01-01T16:16:47;13.50;99.90
47252;DHT22;32991;51.374;11.586;2023-01-01T16:19:15;13.50;99.90
47252;DHT22;32991;51.374;11.586;2023-01-01T16:21:42;13.40;99.90
47252;DHT22;32991;51.374;11.586;2023-01-01T16:24:18;13.40;99.90
47252;DHT22;32991;51.374;11.586;2023-01-01T16:26:45;13.40;99.90
47252;DHT22;32991;51.374;11.586;2023-01-01T16:29:12;13.30;99.90
47252;DHT22;32991;51.374;11.586;2023-01-01T16:31:39;13.30;99.90
47252;DHT22;32991;51.374;11.586;2023-01-01T16:34:06;13.30;99.90
47252;DHT22;32991;51.374;11.586;2023-01-01T16:36:34;13.20;99.90
47252;DHT22;32991;51.374;11.586;2023-01-01T16:39:01;13.20;99.90
47252;DHT22;32991;51.374;11.586;2023-01-01T16:41:28;13.20;99.90
47252;DHT22;32991;51.374;11.586;2023-01-01T16:43:55;13.10;99.90
47252;DHT22;32991;51.374;11.586;2023-01-01T16:46:22;13.00;99.90
47252;DHT22;32991;51.374;11.586;2023-01-01T16:48:49;13.00;99.90
47252;DHT22;32991;51.374;11.586;2023-01-01T16:51:21;12.90;99.90
47252;DHT22;32991;51.374;11.586;2023-01-01T16:53:48;12.90;99.90
47252;DHT22;32991;51.374;11.586;2023-01-01T16:56:15;12.80;99.90
47252;DHT22;32991;51.374;11.586;2023-01-01T16:58:42;12.70;99.90